createdAt,value
2022-10-26T00:01:23.256Z,84.70
2022-10-26T00:06:20.315Z,97.50
2022-10-26T00:11:18.568Z,101.70
2022-10-26T00:16:17.803Z,87.30
2022-10-26T00:21:17.999Z,73.00
2022-10-26T00:26:17.213Z,75.10
2022-10-26T00:31:17.441Z,76.40
2022-10-26T00:36:16.714Z,42.40
2022-10-26T00:41:15.820Z,59.60
2022-10-26T00:46:14.041Z,62.70
2022-10-26T00:51:17.261Z,69.40
2022-10-26T00:56:14.440Z,54.90
2022-10-26T01:01:12.792Z,51.20
2022-10-26T01:06:10.790Z,47.90
2022-10-26T01:11:10.963Z,49.60
2022-10-26T01:16:11.137Z,38.60
2022-10-26T01:21:09.300Z,32.90
2022-10-26T01:26:06.492Z,38.10
2022-10-26T01:31:05.699Z,51.50
2022-10-26T01:36:08.957Z,28.10
2022-10-26T01:41:06.183Z,24.70
2022-10-26T01:46:04.408Z,35.00
2022-10-26T01:51:03.678Z,43.00
2022-10-26T01:56:03.818Z,39.40
2022-10-26T02:01:03.349Z,45.80
2022-10-26T02:06:02.305Z,38.30
2022-10-26T02:11:01.604Z,32.90
2022-10-26T02:16:00.924Z,28.00
2022-10-26T02:20:59.041Z,25.30
2022-10-26T02:25:58.344Z,21.20
2022-10-26T02:30:59.653Z,18.00
2022-10-26T02:35:56.992Z,21.60
2022-10-26T02:40:56.085Z,31.90
2022-10-26T02:45:54.423Z,18.40
2022-10-26T02:50:54.754Z,21.50
2022-10-26T02:55:54.879Z,25.90
2022-10-26T03:00:57.199Z,26.40
2022-10-26T03:05:53.522Z,20.40
2022-10-26T03:10:51.841Z,20.20
2022-10-26T03:15:51.131Z,16.20
2022-10-26T03:20:51.428Z,16.60
2022-10-26T03:25:49.748Z,10.10
2022-10-26T03:30:50.061Z,10.50
2022-10-26T03:35:49.348Z,13.50
2022-10-26T03:40:47.689Z,8.70
2022-10-26T03:45:46.856Z,8.70
2022-10-26T03:50:46.014Z,8.80
2022-10-26T03:55:45.147Z,10.70
2022-10-26T04:00:45.281Z,8.80
2022-10-26T04:05:43.613Z,7.40
2022-10-26T04:10:42.818Z,9.30
2022-10-26T04:15:43.987Z,8.50
2022-10-26T04:20:43.293Z,7.80
2022-10-26T04:25:40.619Z,8.50
2022-10-26T04:30:39.757Z,7.30
2022-10-26T04:35:38.902Z,6.80
2022-10-26T04:40:38.030Z,7.20
2022-10-26T04:45:37.196Z,5.90
2022-10-26T04:50:36.305Z,6.50
2022-10-26T04:55:35.636Z,5.30
2022-10-26T05:00:34.767Z,6.30
2022-10-26T05:05:35.083Z,5.70
2022-10-26T05:10:33.391Z,7.80
2022-10-26T05:15:32.860Z,5.40
2022-10-26T05:20:31.955Z,6.70
2022-10-26T05:25:31.288Z,5.90
2022-10-26T05:30:28.613Z,5.10
2022-10-26T05:35:28.975Z,4.40
2022-10-26T05:40:29.264Z,5.00
2022-10-26T05:45:28.584Z,4.10
2022-10-26T05:50:27.923Z,4.70
2022-10-26T05:55:27.029Z,4.90
2022-10-26T06:00:25.321Z,3.10
2022-10-26T06:05:25.650Z,4.30
2022-10-26T06:10:25.008Z,3.70
2022-10-26T06:15:25.328Z,4.00
2022-10-26T06:20:24.649Z,3.40
2022-10-26T06:25:22.980Z,3.20
2022-10-26T06:30:22.305Z,3.60
2022-10-26T06:35:21.471Z,3.50
2022-10-26T06:40:20.770Z,2.80
2022-10-26T06:45:20.126Z,2.30
2022-10-26T06:50:19.235Z,3.00
2022-10-26T06:55:18.531Z,2.60
2022-10-26T07:00:21.036Z,2.10
2022-10-26T07:05:18.163Z,4.80
2022-10-26T07:10:17.498Z,3.60
2022-10-26T07:15:15.794Z,2.70
2022-10-26T07:20:16.153Z,3.00
2022-10-26T07:25:14.271Z,4.00
2022-10-26T07:30:14.604Z,4.00
2022-10-26T07:35:12.888Z,5.30
2022-10-26T07:40:12.216Z,3.60
2022-10-26T07:45:11.332Z,3.20
2022-10-26T07:50:11.631Z,2.30
2022-10-26T07:55:09.901Z,3.80
2022-10-26T08:00:09.203Z,4.00
2022-10-26T08:05:08.517Z,4.10
2022-10-26T08:10:07.823Z,5.30
2022-10-26T08:15:07.155Z,105.90
2022-10-26T08:20:08.448Z,77.80
2022-10-26T08:25:06.732Z,36.60
2022-10-26T08:30:05.010Z,27.20
2022-10-26T08:35:05.322Z,13.30
2022-10-26T08:40:04.661Z,10.70
2022-10-26T08:45:02.931Z,7.50
2022-10-26T08:50:03.223Z,6.50
2022-10-26T08:55:01.501Z,17.80
2022-10-26T09:00:02.806Z,116.80
2022-10-26T09:05:00.148Z,60.00
2022-10-26T09:10:00.308Z,29.40
2022-10-26T09:14:59.392Z,19.20
2022-10-26T09:19:57.712Z,46.20
2022-10-26T09:24:57.013Z,88.00
2022-10-26T09:29:56.346Z,70.80
2022-10-26T09:34:55.641Z,59.00
2022-10-26T09:39:56.924Z,139.00
2022-10-26T09:44:55.186Z,90.20
2022-10-26T09:49:54.456Z,63.00
2022-10-26T09:54:54.710Z,23.80
2022-10-26T09:59:52.970Z,23.40
2022-10-26T10:04:51.242Z,83.50
2022-10-26T10:09:51.529Z,89.60
2022-10-26T10:14:49.793Z,60.60
2022-10-26T10:19:51.097Z,43.80
2022-10-26T10:24:49.387Z,18.50
2022-10-26T10:29:47.712Z,12.70
2022-10-26T10:34:47.093Z,10.50
2022-10-26T10:39:46.195Z,7.00
2022-10-26T10:44:46.491Z,6.00
2022-10-26T10:49:44.786Z,5.80
2022-10-26T10:54:44.087Z,9.70
2022-10-26T10:59:43.390Z,6.90
2022-10-26T11:04:44.723Z,10.70
2022-10-26T11:09:44.168Z,12.00
2022-10-26T11:14:43.262Z,132.50
2022-10-26T11:19:41.464Z,85.20
2022-10-26T11:24:39.795Z,57.00
2022-10-26T11:29:39.863Z,23.20
2022-10-26T11:34:38.147Z,36.40
2022-10-26T11:39:37.276Z,126.90
2022-10-26T11:44:37.410Z,112.40
2022-10-26T11:49:36.713Z,101.30
2022-10-26T11:54:36.149Z,86.10
2022-10-26T11:59:36.281Z,66.90
2022-10-26T12:04:35.587Z,66.20
2022-10-26T12:09:35.593Z,59.60
2022-10-26T12:14:32.209Z,58.60
2022-10-26T12:19:32.530Z,42.00
2022-10-26T12:24:31.878Z,39.90
2022-10-26T12:29:30.148Z,31.40
2022-10-26T12:34:30.425Z,37.30
2022-10-26T12:39:28.705Z,31.70
2022-10-26T12:44:28.001Z,26.90
2022-10-26T12:49:26.311Z,21.80
2022-10-26T12:54:26.634Z,11.80
2022-10-26T12:59:26.942Z,13.00
2022-10-26T13:04:25.260Z,9.20
2022-10-26T13:09:24.544Z,9.50
2022-10-26T13:14:23.852Z,5.50
2022-10-26T13:19:24.230Z,5.30
2022-10-26T13:24:23.305Z,4.30
2022-10-26T13:29:22.594Z,4.80
2022-10-26T13:34:20.801Z,203.00
2022-10-26T13:39:20.004Z,89.30
2022-10-26T13:44:20.419Z,56.20
2022-10-26T13:49:18.400Z,38.70
2022-10-26T13:54:17.628Z,206.50
2022-10-26T13:59:19.965Z,83.20
2022-10-26T14:04:16.133Z,115.90
2022-10-26T14:09:16.329Z,51.90
2022-10-26T14:14:15.523Z,51.30
2022-10-26T14:19:17.824Z,52.20
2022-10-26T14:24:13.063Z,50.30
2022-10-26T14:29:12.284Z,105.20
2022-10-26T14:34:11.477Z,96.60
2022-10-26T14:39:10.676Z,83.20
2022-10-26T14:44:09.881Z,87.60
2022-10-26T14:49:09.078Z,64.60
2022-10-26T14:54:08.272Z,94.50
2022-10-26T14:59:07.440Z,67.30
2022-10-26T15:04:06.668Z,62.20
2022-10-26T15:09:05.928Z,52.40
2022-10-26T15:14:07.121Z,44.00
2022-10-26T15:19:04.315Z,46.40
2022-10-26T15:24:05.528Z,47.50
2022-10-26T15:29:03.693Z,96.20
2022-10-26T15:34:01.877Z,40.70
2022-10-26T15:39:01.145Z,31.40
2022-10-26T15:44:01.332Z,21.80
2022-10-26T15:48:59.524Z,24.30
2022-10-26T15:53:58.675Z,29.20
2022-10-26T15:58:57.859Z,35.40
2022-10-26T16:03:57.098Z,41.60
2022-10-26T16:08:57.305Z,26.40
2022-10-26T16:13:58.377Z,22.60
2022-10-26T16:19:06.195Z,24.20
2022-10-26T16:23:54.257Z,21.20
2022-10-26T16:28:53.531Z,16.60
2022-10-26T16:33:53.551Z,14.40
2022-10-26T16:38:51.776Z,14.40
2022-10-26T16:43:51.243Z,14.60
2022-10-26T16:48:50.584Z,11.50
2022-10-26T16:53:49.436Z,14.60
2022-10-26T16:58:49.620Z,10.10
2022-10-26T17:03:49.760Z,12.20
2022-10-26T17:08:47.061Z,11.60
2022-10-26T17:13:48.574Z,12.20
2022-10-26T17:18:58.394Z,7.50
2022-10-26T17:23:45.623Z,94.70
2022-10-26T17:28:45.092Z,76.00
2022-10-26T17:33:44.477Z,83.50
2022-10-26T17:38:42.670Z,67.90
2022-10-26T17:43:45.916Z,51.00
2022-10-26T17:48:42.962Z,81.70
2022-10-26T17:53:40.308Z,33.00
2022-10-26T17:58:41.486Z,40.60
2022-10-26T18:03:39.688Z,54.70
2022-10-26T18:08:37.894Z,47.50
2022-10-26T18:13:38.076Z,152.80
2022-10-26T18:18:37.289Z,139.60
2022-10-26T18:23:36.453Z,168.10
2022-10-26T18:28:36.429Z,127.80
2022-10-26T18:33:33.830Z,69.70
2022-10-26T18:38:33.319Z,76.10
2022-10-26T18:43:34.370Z,64.80
2022-10-26T18:48:33.574Z,44.40
2022-10-26T18:53:29.787Z,33.80
2022-10-26T18:58:31.012Z,35.80
2022-10-26T19:03:33.988Z,32.30
2022-10-26T19:08:28.091Z,84.40
2022-10-26T19:13:31.799Z,216.70
2022-10-26T19:18:27.025Z,155.20
2022-10-26T19:23:25.931Z,105.60
2022-10-26T19:28:26.165Z,63.80
2022-10-26T19:33:24.794Z,51.50
2022-10-26T19:38:25.766Z,36.50
2022-10-26T19:43:23.307Z,26.00
2022-10-26T19:48:22.509Z,18.20
2022-10-26T19:53:23.619Z,17.90
2022-10-26T19:58:20.692Z,14.50
2022-10-26T20:03:20.231Z,11.90
2022-10-26T20:08:24.391Z,160.10
2022-10-26T20:13:19.341Z,191.80
2022-10-26T20:18:28.856Z,110.80
2022-10-26T20:23:17.649Z,104.30
2022-10-26T20:28:16.144Z,107.60
2022-10-26T20:33:15.364Z,196.00
2022-10-26T20:38:14.577Z,162.60
2022-10-26T20:43:16.493Z,127.80
2022-10-26T20:48:13.888Z,64.10
2022-10-26T20:53:11.878Z,67.80
2022-10-26T20:58:12.396Z,166.10
2022-10-26T21:03:10.236Z,148.80
2022-10-26T21:08:10.460Z,109.80
2022-10-26T21:13:10.643Z,63.20
2022-10-26T21:18:07.830Z,155.60
2022-10-26T21:23:08.038Z,160.20
2022-10-26T21:28:06.235Z,109.30
2022-10-26T21:33:06.480Z,81.40
2022-10-26T21:38:04.675Z,60.20
2022-10-26T21:43:03.858Z,70.20
2022-10-26T21:48:03.090Z,118.00
2022-10-26T21:53:03.278Z,102.40
2022-10-26T21:58:02.491Z,70.70
2022-10-26T22:03:02.650Z,45.00
2022-10-26T22:08:00.822Z,19.90
2022-10-26T22:12:58.023Z,24.80
2022-10-26T22:17:57.192Z,32.80
2022-10-26T22:22:58.401Z,34.60
2022-10-26T22:27:57.578Z,30.40
2022-10-26T22:32:57.739Z,29.10
2022-10-26T22:37:54.946Z,81.10
2022-10-26T22:42:54.264Z,42.50
2022-10-26T22:47:53.275Z,21.30
2022-10-26T22:52:52.671Z,20.80
2022-10-26T22:57:51.866Z,14.20
2022-10-26T23:02:52.927Z,11.20
2022-10-26T23:07:50.241Z,8.80
2022-10-26T23:12:50.462Z,11.40
2022-10-26T23:17:49.026Z,12.30
2022-10-26T23:22:48.127Z,10.20
2022-10-26T23:27:49.283Z,11.50
2022-10-26T23:32:47.543Z,6.00
2022-10-26T23:37:45.763Z,9.40
2022-10-26T23:42:44.946Z,7.70
2022-10-26T23:47:44.123Z,8.20
2022-10-26T23:52:44.316Z,10.60
2022-10-26T23:57:42.481Z,9.80
